Startpagina
METAR-TAF:

METAR-TAF

Vliegvelden :

Siirt, Turkije

breedte: 37-58-41N, lengte: 41-50-21E, hoogte: 610 m

Actueel weer

Dit bericht is 5 uur en het 35 minuten geleden gemaakt, om 13:50 UTC
Wind 9 kt uit het oostnoordoosten
Temperatuur 16°C
Vochtigheid 48%
Druk 1021 hPa
Zicht 10 km of meer
Verspreide wolken op 4000 ft

METAR: LTCL 181350Z 06009KT 9999 SCT040 16/05 Q1021

Tijdstip: 22:25 (19:25 UTC)

Verwachting

Dit bericht is 5 uur en het 45 minuten geleden gemaakt, om 13:40 UTC
Verwachting geldig van 18 om 15 UTC tot 18 om 24 UTC
Wind 2 kt uit variabele richting
Zicht 10 km of meer
Verspreide wolken op 4000 ft

TAF: LTCL 181340Z 1815/1824 VRB02KT 9999 SCT040

Waarnemingen en weersverwachtingen van meer dan 4000 vliegvelden (METAR en TAF).

De beschikbare stations zijn de gele en rode punten op de kaart.

Ga met uw muis naar het station om de naam te zien.

Klik dan om waarnemingen en weersverwachtingen te zien.

kaart wijzigen: klik op de groene knoppen met een zwart kruis om in te zoomen, op de groene knop met een streepje om uit te zoomen of op de groene pijlen voor aangrenzende kaarten.


METAR-TAF: